sensor_id;sensor_type;location;lat;lon;timestamp;P1;durP1;ratioP1;P2;durP2;ratioP2
46593;SDS011;35342;52.378;4.648;2023-02-27T00:01:28;6.78;;;1.90;;
46593;SDS011;35342;52.378;4.648;2023-02-27T00:03:55;9.35;;;2.55;;
46593;SDS011;35342;52.378;4.648;2023-02-27T00:06:21;7.13;;;2.13;;
46593;SDS011;35342;52.378;4.648;2023-02-27T00:08:47;8.68;;;2.28;;
46593;SDS011;35342;52.378;4.648;2023-02-27T00:11:13;6.90;;;2.05;;
46593;SDS011;35342;52.378;4.648;2023-02-27T00:13:39;7.38;;;2.10;;
46593;SDS011;35342;52.378;4.648;2023-02-27T00:16:06;5.65;;;1.73;;
46593;SDS011;35342;52.378;4.648;2023-02-27T00:18:32;5.93;;;1.90;;
46593;SDS011;35342;52.378;4.648;2023-02-27T00:20:58;5.25;;;1.98;;
46593;SDS011;35342;52.378;4.648;2023-02-27T00:23:24;4.32;;;2.10;;
46593;SDS011;35342;52.378;4.648;2023-02-27T00:25:50;3.10;;;1.35;;
46593;SDS011;35342;52.378;4.648;2023-02-27T00:28:16;9.55;;;1.38;;
46593;SDS011;35342;52.378;4.648;2023-02-27T00:30:42;2.97;;;1.80;;
46593;SDS011;35342;52.378;4.648;2023-02-27T00:33:08;4.72;;;1.95;;
46593;SDS011;35342;52.378;4.648;2023-02-27T00:35:33;9.18;;;2.28;;
46593;SDS011;35342;52.378;4.648;2023-02-27T00:38:00;5.30;;;1.88;;
46593;SDS011;35342;52.378;4.648;2023-02-27T00:40:26;13.00;;;2.35;;
46593;SDS011;35342;52.378;4.648;2023-02-27T00:42:52;3.00;;;1.92;;
46593;SDS011;35342;52.378;4.648;2023-02-27T00:45:18;5.78;;;1.75;;
46593;SDS011;35342;52.378;4.648;2023-02-27T00:47:44;6.90;;;2.08;;
46593;SDS011;35342;52.378;4.648;2023-02-27T00:50:10;6.13;;;1.92;;
46593;SDS011;35342;52.378;4.648;2023-02-27T00:52:38;4.50;;;2.08;;
46593;SDS011;35342;52.378;4.648;2023-02-27T00:55:04;2.53;;;2.03;;
46593;SDS011;35342;52.378;4.648;2023-02-27T00:57:31;6.78;;;2.25;;
46593;SDS011;35342;52.378;4.648;2023-02-27T00:59:57;5.47;;;1.88;;
46593;SDS011;35342;52.378;4.648;2023-02-27T01:02:23;5.45;;;2.40;;
46593;SDS011;35342;52.378;4.648;2023-02-27T01:04:49;2.63;;;1.50;;
46593;SDS011;35342;52.378;4.648;2023-02-27T01:07:15;4.22;;;1.63;;
46593;SDS011;35342;52.378;4.648;2023-02-27T01:09:41;6.18;;;1.90;;
46593;SDS011;35342;52.378;4.648;2023-02-27T01:12:07;6.85;;;2.03;;
46593;SDS011;35342;52.378;4.648;2023-02-27T01:14:34;3.05;;;1.55;;
46593;SDS011;35342;52.378;4.648;2023-02-27T01:17:00;4.07;;;2.70;;
46593;SDS011;35342;52.378;4.648;2023-02-27T01:19:26;5.50;;;1.95;;
46593;SDS011;35342;52.378;4.648;2023-02-27T01:21:51;3.97;;;1.90;;
46593;SDS011;35342;52.378;4.648;2023-02-27T01:24:17;3.42;;;1.70;;
46593;SDS011;35342;52.378;4.648;2023-02-27T01:26:44;3.15;;;1.65;;
46593;SDS011;35342;52.378;4.648;2023-02-27T01:29:11;8.98;;;2.15;;
46593;SDS011;35342;52.378;4.648;2023-02-27T01:31:38;9.07;;;1.65;;
46593;SDS011;35342;52.378;4.648;2023-02-27T01:34:04;4.30;;;2.42;;
46593;SDS011;35342;52.378;4.648;2023-02-27T01:36:29;7.55;;;2.25;;
46593;SDS011;35342;52.378;4.648;2023-02-27T01:38:55;8.63;;;1.92;;
46593;SDS011;35342;52.378;4.648;2023-02-27T01:41:21;4.15;;;1.50;;
46593;SDS011;35342;52.378;4.648;2023-02-27T01:46:27;4.57;;;2.13;;
46593;SDS011;35342;52.378;4.648;2023-02-27T01:48:56;3.90;;;1.70;;
46593;SDS011;35342;52.378;4.648;2023-02-27T01:51:49;10.57;;;2.47;;
46593;SDS011;35342;52.378;4.648;2023-02-27T01:54:26;6.30;;;2.10;;
46593;SDS011;35342;52.378;4.648;2023-02-27T01:56:53;9.43;;;1.85;;
46593;SDS011;35342;52.378;4.648;2023-02-27T01:59:20;7.13;;;1.98;;
46593;SDS011;35342;52.378;4.648;2023-02-27T02:01:47;5.93;;;2.10;;
46593;SDS011;35342;52.378;4.648;2023-02-27T02:07:05;2.58;;;1.58;;
46593;SDS011;35342;52.378;4.648;2023-02-27T02:09:38;7.72;;;1.92;;
46593;SDS011;35342;52.378;4.648;2023-02-27T02:12:15;3.20;;;1.35;;
46593;SDS011;35342;52.378;4.648;2023-02-27T02:14:44;6.20;;;1.67;;
46593;SDS011;35342;52.378;4.648;2023-02-27T02:17:12;10.35;;;2.30;;
46593;SDS011;35342;52.378;4.648;2023-02-27T02:27:02;3.17;;;1.90;;
46593;SDS011;35342;52.378;4.648;2023-02-27T02:39:25;3.53;;;1.70;;
46593;SDS011;35342;52.378;4.648;2023-02-27T02:45:11;8.30;;;1.90;;
46593;SDS011;35342;52.378;4.648;2023-02-27T02:47:58;3.97;;;1.90;;
46593;SDS011;35342;52.378;4.648;2023-02-27T02:53:21;6.75;;;1.58;;
46593;SDS011;35342;52.378;4.648;2023-02-27T03:01:31;2.50;;;1.80;;
46593;SDS011;35342;52.378;4.648;2023-02-27T03:04:05;4.10;;;1.55;;
46593;SDS011;35342;52.378;4.648;2023-02-27T03:07:10;5.70;;;1.63;;
46593;SDS011;35342;52.378;4.648;2023-02-27T03:09:56;5.95;;;1.75;;
46593;SDS011;35342;52.378;4.648;2023-02-27T03:12:38;13.05;;;2.00;;
46593;SDS011;35342;52.378;4.648;2023-02-27T03:20:56;2.92;;;1.70;;
46593;SDS011;35342;52.378;4.648;2023-02-27T03:23:41;2.17;;;1.30;;
46593;SDS011;35342;52.378;4.648;2023-02-27T03:26:10;3.43;;;1.57;;
46593;SDS011;35342;52.378;4.648;2023-02-27T03:28:44;3.15;;;1.50;;
46593;SDS011;35342;52.378;4.648;2023-02-27T03:31:46;4.55;;;2.05;;
46593;SDS011;35342;52.378;4.648;2023-02-27T03:37:12;5.90;;;1.23;;
46593;SDS011;35342;52.378;4.648;2023-02-27T03:42:38;4.72;;;1.80;;
46593;SDS011;35342;52.378;4.648;2023-02-27T03:47:57;4.03;;;1.17;;
46593;SDS011;35342;52.378;4.648;2023-02-27T03:50:23;1.92;;;1.17;;
46593;SDS011;35342;52.378;4.648;2023-02-27T03:52:49;4.07;;;1.60;;
46593;SDS011;35342;52.378;4.648;2023-02-27T03:55:16;2.67;;;1.60;;
46593;SDS011;35342;52.378;4.648;2023-02-27T03:57:48;7.97;;;2.17;;
46593;SDS011;35342;52.378;4.648;2023-02-27T04:00:20;7.50;;;1.27;;
46593;SDS011;35342;52.378;4.648;2023-02-27T04:02:49;4.00;;;1.55;;
46593;SDS011;35342;52.378;4.648;2023-02-27T04:05:17;3.58;;;2.63;;
46593;SDS011;35342;52.378;4.648;2023-02-27T04:22:46;5.20;;;1.92;;
46593;SDS011;35342;52.378;4.648;2023-02-27T04:25:45;4.65;;;2.20;;
46593;SDS011;35342;52.378;4.648;2023-02-27T04:31:39;6.68;;;1.83;;
46593;SDS011;35342;52.378;4.648;2023-02-27T04:34:31;3.33;;;1.50;;
46593;SDS011;35342;52.378;4.648;2023-02-27T04:40:11;3.67;;;1.80;;
46593;SDS011;35342;52.378;4.648;2023-02-27T04:42:46;5.93;;;2.17;;
46593;SDS011;35342;52.378;4.648;2023-02-27T04:47:50;2.50;;;1.85;;
46593;SDS011;35342;52.378;4.648;2023-02-27T04:50:34;4.63;;;2.35;;
46593;SDS011;35342;52.378;4.648;2023-02-27T04:53:12;9.05;;;2.58;;
46593;SDS011;35342;52.378;4.648;2023-02-27T04:55:57;10.13;;;2.72;;
46593;SDS011;35342;52.378;4.648;2023-02-27T04:58:33;11.20;;;2.42;;
46593;SDS011;35342;52.378;4.648;2023-02-27T05:01:10;7.35;;;2.85;;
46593;SDS011;35342;52.378;4.648;2023-02-27T05:03:46;3.72;;;1.95;;
46593;SDS011;35342;52.378;4.648;2023-02-27T05:06:16;9.80;;;2.22;;
46593;SDS011;35342;52.378;4.648;2023-02-27T05:08:52;3.35;;;1.90;;
46593;SDS011;35342;52.378;4.648;2023-02-27T05:11:48;3.17;;;1.92;;
46593;SDS011;35342;52.378;4.648;2023-02-27T05:14:48;4.13;;;2.05;;
46593;SDS011;35342;52.378;4.648;2023-02-27T05:20:03;5.47;;;2.30;;
46593;SDS011;35342;52.378;4.648;2023-02-27T05:25:46;9.60;;;1.92;;
46593;SDS011;35342;52.378;4.648;2023-02-27T05:28:35;2.92;;;1.58;;
46593;SDS011;35342;52.378;4.648;2023-02-27T05:34:04;6.53;;;2.00;;
46593;SDS011;35342;52.378;4.648;2023-02-27T05:37:01;4.35;;;2.00;;
46593;SDS011;35342;52.378;4.648;2023-02-27T05:39:55;3.40;;;2.35;;
46593;SDS011;35342;52.378;4.648;2023-02-27T05:42:25;13.27;;;3.03;;
46593;SDS011;35342;52.378;4.648;2023-02-27T05:44:59;4.97;;;1.60;;
46593;SDS011;35342;52.378;4.648;2023-02-27T05:47:35;10.13;;;2.08;;
46593;SDS011;35342;52.378;4.648;2023-02-27T05:50:08;4.88;;;2.25;;
46593;SDS011;35342;52.378;4.648;2023-02-27T05:52:41;3.05;;;1.90;;
46593;SDS011;35342;52.378;4.648;2023-02-27T06:01:24;5.47;;;2.13;;
46593;SDS011;35342;52.378;4.648;2023-02-27T06:03:50;4.28;;;1.85;;
46593;SDS011;35342;52.378;4.648;2023-02-27T06:06:17;8.13;;;1.67;;
46593;SDS011;35342;52.378;4.648;2023-02-27T06:08:44;4.53;;;2.08;;
46593;SDS011;35342;52.378;4.648;2023-02-27T06:11:10;7.45;;;1.85;;
46593;SDS011;35342;52.378;4.648;2023-02-27T06:13:37;3.75;;;1.83;;
46593;SDS011;35342;52.378;4.648;2023-02-27T06:16:03;3.35;;;1.70;;
46593;SDS011;35342;52.378;4.648;2023-02-27T06:18:29;3.72;;;1.75;;
46593;SDS011;35342;52.378;4.648;2023-02-27T06:20:55;4.82;;;1.50;;
46593;SDS011;35342;52.378;4.648;2023-02-27T06:23:21;2.50;;;1.42;;
46593;SDS011;35342;52.378;4.648;2023-02-27T06:25:47;3.45;;;1.45;;
46593;SDS011;35342;52.378;4.648;2023-02-27T06:28:13;10.20;;;3.53;;
46593;SDS011;35342;52.378;4.648;2023-02-27T06:30:39;3.40;;;1.77;;
46593;SDS011;35342;52.378;4.648;2023-02-27T06:33:05;8.18;;;1.52;;
46593;SDS011;35342;52.378;4.648;2023-02-27T06:35:31;1.55;;;1.02;;
46593;SDS011;35342;52.378;4.648;2023-02-27T06:37:57;7.53;;;1.40;;
46593;SDS011;35342;52.378;4.648;2023-02-27T06:40:23;6.20;;;1.65;;
46593;SDS011;35342;52.378;4.648;2023-02-27T06:42:49;11.30;;;2.60;;
46593;SDS011;35342;52.378;4.648;2023-02-27T06:45:15;5.25;;;1.50;;
46593;SDS011;35342;52.378;4.648;2023-02-27T06:47:42;4.97;;;1.75;;
46593;SDS011;35342;52.378;4.648;2023-02-27T06:50:09;6.10;;;2.53;;
46593;SDS011;35342;52.378;4.648;2023-02-27T06:52:37;3.83;;;1.40;;
46593;SDS011;35342;52.378;4.648;2023-02-27T06:55:05;1.60;;;1.42;;
46593;SDS011;35342;52.378;4.648;2023-02-27T06:57:32;4.63;;;1.63;;
46593;SDS011;35342;52.378;4.648;2023-02-27T06:59:59;6.85;;;1.92;;
46593;SDS011;35342;52.378;4.648;2023-02-27T07:02:25;3.28;;;1.48;;
46593;SDS011;35342;52.378;4.648;2023-02-27T07:04:51;2.83;;;1.65;;
46593;SDS011;35342;52.378;4.648;2023-02-27T07:07:17;8.82;;;2.00;;
46593;SDS011;35342;52.378;4.648;2023-02-27T07:09:43;6.13;;;1.55;;
46593;SDS011;35342;52.378;4.648;2023-02-27T07:12:09;4.53;;;2.25;;
46593;SDS011;35342;52.378;4.648;2023-02-27T07:14:35;2.95;;;1.48;;
46593;SDS011;35342;52.378;4.648;2023-02-27T07:17:01;10.10;;;2.17;;
46593;SDS011;35342;52.378;4.648;2023-02-27T07:19:28;8.77;;;1.52;;
46593;SDS011;35342;52.378;4.648;2023-02-27T07:21:57;4.90;;;1.55;;
46593;SDS011;35342;52.378;4.648;2023-02-27T07:24:23;6.05;;;1.85;;
46593;SDS011;35342;52.378;4.648;2023-02-27T07:26:48;8.75;;;1.88;;
46593;SDS011;35342;52.378;4.648;2023-02-27T07:29:14;21.05;;;2.80;;
46593;SDS011;35342;52.378;4.648;2023-02-27T07:31:40;8.38;;;1.85;;
46593;SDS011;35342;52.378;4.648;2023-02-27T07:34:06;4.47;;;1.58;;
46593;SDS011;35342;52.378;4.648;2023-02-27T07:36:33;1.63;;;1.30;;
46593;SDS011;35342;52.378;4.648;2023-02-27T07:38:59;7.60;;;2.30;;
46593;SDS011;35342;52.378;4.648;2023-02-27T07:41:27;4.15;;;1.75;;
46593;SDS011;35342;52.378;4.648;2023-02-27T07:43:56;12.00;;;2.00;;
46593;SDS011;35342;52.378;4.648;2023-02-27T07:46:23;2.65;;;1.30;;
46593;SDS011;35342;52.378;4.648;2023-02-27T07:48:51;4.90;;;1.50;;
46593;SDS011;35342;52.378;4.648;2023-02-27T07:51:17;11.65;;;1.88;;
46593;SDS011;35342;52.378;4.648;2023-02-27T07:53:43;6.43;;;1.73;;
46593;SDS011;35342;52.378;4.648;2023-02-27T07:56:09;10.38;;;1.25;;
46593;SDS011;35342;52.378;4.648;2023-02-27T07:58:35;21.80;;;3.20;;
46593;SDS011;35342;52.378;4.648;2023-02-27T08:01:01;18.13;;;3.75;;
46593;SDS011;35342;52.378;4.648;2023-02-27T08:03:27;33.17;;;4.10;;
46593;SDS011;35342;52.378;4.648;2023-02-27T08:05:53;13.48;;;1.90;;
46593;SDS011;35342;52.378;4.648;2023-02-27T08:08:18;7.60;;;1.75;;
46593;SDS011;35342;52.378;4.648;2023-02-27T08:10:45;21.25;;;4.30;;
46593;SDS011;35342;52.378;4.648;2023-02-27T08:13:12;9.68;;;1.40;;
46593;SDS011;35342;52.378;4.648;2023-02-27T08:15:38;6.72;;;1.60;;
46593;SDS011;35342;52.378;4.648;2023-02-27T08:18:04;3.42;;;1.33;;
46593;SDS011;35342;52.378;4.648;2023-02-27T08:20:30;3.55;;;1.10;;
46593;SDS011;35342;52.378;4.648;2023-02-27T08:22:56;16.63;;;2.63;;
46593;SDS011;35342;52.378;4.648;2023-02-27T08:25:22;11.25;;;2.03;;
46593;SDS011;35342;52.378;4.648;2023-02-27T08:27:48;4.30;;;1.50;;
46593;SDS011;35342;52.378;4.648;2023-02-27T08:30:14;5.60;;;1.75;;
46593;SDS011;35342;52.378;4.648;2023-02-27T08:32:45;2.35;;;0.88;;
46593;SDS011;35342;52.378;4.648;2023-02-27T08:35:11;2.65;;;1.27;;
46593;SDS011;35342;52.378;4.648;2023-02-27T08:37:37;5.95;;;1.30;;
46593;SDS011;35342;52.378;4.648;2023-02-27T08:40:03;4.18;;;1.70;;
46593;SDS011;35342;52.378;4.648;2023-02-27T08:42:31;7.20;;;1.60;;
46593;SDS011;35342;52.378;4.648;2023-02-27T08:44:57;5.05;;;1.35;;
46593;SDS011;35342;52.378;4.648;2023-02-27T08:47:23;2.03;;;0.88;;
46593;SDS011;35342;52.378;4.648;2023-02-27T08:49:49;3.28;;;0.90;;
46593;SDS011;35342;52.378;4.648;2023-02-27T08:52:15;3.92;;;1.17;;
46593;SDS011;35342;52.378;4.648;2023-02-27T08:54:41;7.68;;;1.50;;
46593;SDS011;35342;52.378;4.648;2023-02-27T08:57:07;6.60;;;1.70;;
46593;SDS011;35342;52.378;4.648;2023-02-27T08:59:33;1.65;;;0.88;;
46593;SDS011;35342;52.378;4.648;2023-02-27T09:02:00;3.78;;;1.20;;
46593;SDS011;35342;52.378;4.648;2023-02-27T09:04:26;2.53;;;0.77;;
46593;SDS011;35342;52.378;4.648;2023-02-27T09:06:52;5.47;;;1.30;;
46593;SDS011;35342;52.378;4.648;2023-02-27T09:09:18;8.85;;;1.27;;
46593;SDS011;35342;52.378;4.648;2023-02-27T09:11:44;5.07;;;1.10;;
46593;SDS011;35342;52.378;4.648;2023-02-27T09:14:11;4.60;;;1.20;;
46593;SDS011;35342;52.378;4.648;2023-02-27T09:16:38;4.25;;;1.17;;
46593;SDS011;35342;52.378;4.648;2023-02-27T09:19:04;6.85;;;1.65;;
46593;SDS011;35342;52.378;4.648;2023-02-27T09:21:31;7.60;;;1.27;;
46593;SDS011;35342;52.378;4.648;2023-02-27T09:23:57;5.15;;;1.02;;
46593;SDS011;35342;52.378;4.648;2023-02-27T09:26:23;3.25;;;1.00;;
46593;SDS011;35342;52.378;4.648;2023-02-27T09:28:50;2.85;;;1.10;;
46593;SDS011;35342;52.378;4.648;2023-02-27T09:31:15;3.45;;;1.05;;
46593;SDS011;35342;52.378;4.648;2023-02-27T09:33:42;7.97;;;1.70;;
46593;SDS011;35342;52.378;4.648;2023-02-27T09:36:08;4.78;;;0.98;;
46593;SDS011;35342;52.378;4.648;2023-02-27T09:38:35;9.13;;;1.25;;
46593;SDS011;35342;52.378;4.648;2023-02-27T09:41:03;14.10;;;1.35;;
46593;SDS011;35342;52.378;4.648;2023-02-27T09:46:14;6.65;;;1.20;;
46593;SDS011;35342;52.378;4.648;2023-02-27T09:48:45;11.27;;;2.15;;
46593;SDS011;35342;52.378;4.648;2023-02-27T09:51:15;8.52;;;1.30;;
46593;SDS011;35342;52.378;4.648;2023-02-27T09:53:47;13.18;;;1.42;;
46593;SDS011;35342;52.378;4.648;2023-02-27T09:56:22;5.82;;;1.08;;
46593;SDS011;35342;52.378;4.648;2023-02-27T09:59:12;8.55;;;2.50;;
46593;SDS011;35342;52.378;4.648;2023-02-27T10:08:05;5.85;;;1.33;;
46593;SDS011;35342;52.378;4.648;2023-02-27T10:11:11;4.30;;;2.00;;
46593;SDS011;35342;52.378;4.648;2023-02-27T10:16:31;7.82;;;1.58;;
46593;SDS011;35342;52.378;4.648;2023-02-27T10:18:59;9.02;;;2.08;;
46593;SDS011;35342;52.378;4.648;2023-02-27T10:21:55;6.05;;;1.52;;
46593;SDS011;35342;52.378;4.648;2023-02-27T10:24:28;4.57;;;1.60;;
46593;SDS011;35342;52.378;4.648;2023-02-27T10:27:11;4.95;;;0.90;;
46593;SDS011;35342;52.378;4.648;2023-02-27T10:29:43;4.63;;;1.33;;
46593;SDS011;35342;52.378;4.648;2023-02-27T10:32:23;3.40;;;1.00;;
46593;SDS011;35342;52.378;4.648;2023-02-27T10:34:57;17.27;;;1.02;;
46593;SDS011;35342;52.378;4.648;2023-02-27T10:38:03;11.52;;;1.60;;
46593;SDS011;35342;52.378;4.648;2023-02-27T10:40:50;2.92;;;0.50;;
46593;SDS011;35342;52.378;4.648;2023-02-27T10:43:18;8.65;;;1.95;;
46593;SDS011;35342;52.378;4.648;2023-02-27T10:45:45;2.85;;;1.02;;
46593;SDS011;35342;52.378;4.648;2023-02-27T10:48:11;2.33;;;0.90;;
46593;SDS011;35342;52.378;4.648;2023-02-27T10:50:39;4.50;;;0.88;;
46593;SDS011;35342;52.378;4.648;2023-02-27T10:53:19;4.20;;;1.17;;
46593;SDS011;35342;52.378;4.648;2023-02-27T10:56:00;7.03;;;1.50;;
46593;SDS011;35342;52.378;4.648;2023-02-27T10:58:35;17.50;;;1.45;;
46593;SDS011;35342;52.378;4.648;2023-02-27T11:01:08;2.95;;;1.15;;
46593;SDS011;35342;52.378;4.648;2023-02-27T11:06:23;4.15;;;0.90;;
46593;SDS011;35342;52.378;4.648;2023-02-27T11:09:10;4.22;;;0.77;;
46593;SDS011;35342;52.378;4.648;2023-02-27T11:11:46;10.90;;;1.55;;
46593;SDS011;35342;52.378;4.648;2023-02-27T11:14:23;2.75;;;1.02;;
46593;SDS011;35342;52.378;4.648;2023-02-27T11:16:53;12.90;;;1.10;;
46593;SDS011;35342;52.378;4.648;2023-02-27T11:19:27;3.90;;;1.20;;
46593;SDS011;35342;52.378;4.648;2023-02-27T11:24:37;0.38;;;0.32;;
46593;SDS011;35342;52.378;4.648;2023-02-27T11:27:05;2.13;;;0.90;;
46593;SDS011;35342;52.378;4.648;2023-02-27T11:30:00;0.90;;;0.52;;
46593;SDS011;35342;52.378;4.648;2023-02-27T11:32:43;1.50;;;0.80;;
46593;SDS011;35342;52.378;4.648;2023-02-27T11:38:02;3.45;;;0.60;;
46593;SDS011;35342;52.378;4.648;2023-02-27T11:40:47;3.53;;;0.82;;
46593;SDS011;35342;52.378;4.648;2023-02-27T11:46:02;2.47;;;0.60;;
46593;SDS011;35342;52.378;4.648;2023-02-27T11:48:38;1.67;;;0.57;;
46593;SDS011;35342;52.378;4.648;2023-02-27T11:56:35;7.90;;;0.98;;
46593;SDS011;35342;52.378;4.648;2023-02-27T11:59:21;4.97;;;0.68;;
46593;SDS011;35342;52.378;4.648;2023-02-27T12:01:50;7.35;;;0.70;;
46593;SDS011;35342;52.378;4.648;2023-02-27T12:04:25;1.20;;;0.90;;
46593;SDS011;35342;52.378;4.648;2023-02-27T12:10:13;3.80;;;0.50;;
46593;SDS011;35342;52.378;4.648;2023-02-27T12:12:50;2.05;;;0.73;;
46593;SDS011;35342;52.378;4.648;2023-02-27T12:18:15;2.22;;;0.50;;
46593;SDS011;35342;52.378;4.648;2023-02-27T12:26:26;3.58;;;0.60;;
46593;SDS011;35342;52.378;4.648;2023-02-27T12:29:12;3.72;;;0.63;;
46593;SDS011;35342;52.378;4.648;2023-02-27T12:32:01;2.50;;;0.70;;
46593;SDS011;35342;52.378;4.648;2023-02-27T12:37:25;6.57;;;0.82;;
46593;SDS011;35342;52.378;4.648;2023-02-27T12:39:54;3.65;;;0.82;;
46593;SDS011;35342;52.378;4.648;2023-02-27T12:45:41;3.22;;;0.70;;
46593;SDS011;35342;52.378;4.648;2023-02-27T12:54:17;4.85;;;0.50;;
46593;SDS011;35342;52.378;4.648;2023-02-27T12:59:46;2.13;;;0.60;;
46593;SDS011;35342;52.378;4.648;2023-02-27T13:02:36;0.55;;;0.40;;
46593;SDS011;35342;52.378;4.648;2023-02-27T13:05:35;6.13;;;1.25;;
46593;SDS011;35342;52.378;4.648;2023-02-27T13:11:21;3.03;;;0.50;;
46593;SDS011;35342;52.378;4.648;2023-02-27T13:14:21;2.63;;;1.00;;
46593;SDS011;35342;52.378;4.648;2023-02-27T13:17:08;1.55;;;0.68;;
46593;SDS011;35342;52.378;4.648;2023-02-27T13:22:57;0.55;;;0.40;;
46593;SDS011;35342;52.378;4.648;2023-02-27T13:25:34;2.15;;;0.70;;
46593;SDS011;35342;52.378;4.648;2023-02-27T13:28:04;4.85;;;2.30;;
46593;SDS011;35342;52.378;4.648;2023-02-27T13:36:26;2.13;;;0.75;;
46593;SDS011;35342;52.378;4.648;2023-02-27T13:42:01;3.95;;;1.15;;
46593;SDS011;35342;52.378;4.648;2023-02-27T13:44:38;2.25;;;0.93;;
46593;SDS011;35342;52.378;4.648;2023-02-27T13:47:35;2.47;;;1.10;;
46593;SDS011;35342;52.378;4.648;2023-02-27T13:50:49;2.13;;;0.90;;
46593;SDS011;35342;52.378;4.648;2023-02-27T13:52:49;3.00;;;0.80;;
46593;SDS011;35342;52.378;4.648;2023-02-27T13:55:26;3.10;;;1.55;;
46593;SDS011;35342;52.378;4.648;2023-02-27T13:57:58;3.00;;;1.40;;
46593;SDS011;35342;52.378;4.648;2023-02-27T14:00:35;5.03;;;1.10;;
46593;SDS011;35342;52.378;4.648;2023-02-27T14:03:15;1.98;;;1.00;;
46593;SDS011;35342;52.378;4.648;2023-02-27T14:05:50;5.15;;;1.30;;
46593;SDS011;35342;52.378;4.648;2023-02-27T14:08:22;2.63;;;1.40;;
46593;SDS011;35342;52.378;4.648;2023-02-27T14:11:00;3.70;;;1.33;;
46593;SDS011;35342;52.378;4.648;2023-02-27T14:24:25;3.63;;;0.93;;
46593;SDS011;35342;52.378;4.648;2023-02-27T14:26:57;4.88;;;1.20;;
46593;SDS011;35342;52.378;4.648;2023-02-27T14:29:25;3.88;;;1.10;;
46593;SDS011;35342;52.378;4.648;2023-02-27T14:31:57;1.95;;;1.30;;
46593;SDS011;35342;52.378;4.648;2023-02-27T14:34:30;3.38;;;1.00;;
46593;SDS011;35342;52.378;4.648;2023-02-27T14:37:00;4.65;;;1.23;;
46593;SDS011;35342;52.378;4.648;2023-02-27T14:39:31;3.90;;;1.40;;
46593;SDS011;35342;52.378;4.648;2023-02-27T14:42:18;3.80;;;1.35;;
46593;SDS011;35342;52.378;4.648;2023-02-27T14:45:23;2.25;;;1.05;;
46593;SDS011;35342;52.378;4.648;2023-02-27T14:47:50;3.42;;;0.90;;
46593;SDS011;35342;52.378;4.648;2023-02-27T14:50:27;5.97;;;0.90;;
46593;SDS011;35342;52.378;4.648;2023-02-27T14:53:02;1.45;;;1.17;;
46593;SDS011;35342;52.378;4.648;2023-02-27T14:55:33;2.97;;;1.00;;
46593;SDS011;35342;52.378;4.648;2023-02-27T15:00:44;2.47;;;1.08;;
46593;SDS011;35342;52.378;4.648;2023-02-27T15:03:44;4.78;;;1.27;;
46593;SDS011;35342;52.378;4.648;2023-02-27T15:06:21;0.75;;;0.73;;
46593;SDS011;35342;52.378;4.648;2023-02-27T15:08:58;4.90;;;2.25;;
46593;SDS011;35342;52.378;4.648;2023-02-27T15:11:24;4.50;;;1.10;;
46593;SDS011;35342;52.378;4.648;2023-02-27T15:13:57;2.72;;;1.10;;
46593;SDS011;35342;52.378;4.648;2023-02-27T15:16:37;5.10;;;0.93;;
46593;SDS011;35342;52.378;4.648;2023-02-27T15:21:43;2.85;;;0.90;;
46593;SDS011;35342;52.378;4.648;2023-02-27T15:27:06;2.35;;;0.80;;
46593;SDS011;35342;52.378;4.648;2023-02-27T15:29:39;0.95;;;0.88;;
46593;SDS011;35342;52.378;4.648;2023-02-27T15:32:24;1.52;;;0.77;;
46593;SDS011;35342;52.378;4.648;2023-02-27T15:35:20;0.90;;;0.60;;
46593;SDS011;35342;52.378;4.648;2023-02-27T15:37:51;6.28;;;0.80;;
46593;SDS011;35342;52.378;4.648;2023-02-27T15:40:21;2.70;;;0.73;;
46593;SDS011;35342;52.378;4.648;2023-02-27T15:42:53;1.08;;;0.77;;
46593;SDS011;35342;52.378;4.648;2023-02-27T15:45:28;5.22;;;1.30;;
46593;SDS011;35342;52.378;4.648;2023-02-27T15:47:57;4.13;;;1.15;;
46593;SDS011;35342;52.378;4.648;2023-02-27T15:50:25;1.92;;;1.15;;
46593;SDS011;35342;52.378;4.648;2023-02-27T15:52:59;1.57;;;0.90;;
46593;SDS011;35342;52.378;4.648;2023-02-27T15:55:39;2.17;;;0.80;;
46593;SDS011;35342;52.378;4.648;2023-02-27T15:58:28;5.82;;;1.23;;
46593;SDS011;35342;52.378;4.648;2023-02-27T16:01:13;1.38;;;0.80;;
46593;SDS011;35342;52.378;4.648;2023-02-27T16:03:46;1.40;;;0.70;;
46593;SDS011;35342;52.378;4.648;2023-02-27T16:06:15;3.15;;;1.05;;
46593;SDS011;35342;52.378;4.648;2023-02-27T16:08:53;4.13;;;1.55;;
46593;SDS011;35342;52.378;4.648;2023-02-27T16:11:48;1.23;;;1.00;;
46593;SDS011;35342;52.378;4.648;2023-02-27T16:17:23;9.95;;;2.03;;
46593;SDS011;35342;52.378;4.648;2023-02-27T16:19:56;2.38;;;1.13;;
46593;SDS011;35342;52.378;4.648;2023-02-27T16:22:25;3.17;;;1.50;;
46593;SDS011;35342;52.378;4.648;2023-02-27T16:24:54;2.90;;;1.98;;
46593;SDS011;35342;52.378;4.648;2023-02-27T16:27:34;1.85;;;1.27;;
46593;SDS011;35342;52.378;4.648;2023-02-27T16:30:00;2.22;;;1.13;;
46593;SDS011;35342;52.378;4.648;2023-02-27T16:32:29;1.48;;;0.75;;
46593;SDS011;35342;52.378;4.648;2023-02-27T16:37:33;1.33;;;0.98;;
46593;SDS011;35342;52.378;4.648;2023-02-27T16:40:12;1.40;;;0.93;;
46593;SDS011;35342;52.378;4.648;2023-02-27T16:42:41;1.15;;;0.65;;
46593;SDS011;35342;52.378;4.648;2023-02-27T16:45:18;2.38;;;0.88;;
46593;SDS011;35342;52.378;4.648;2023-02-27T16:47:53;1.05;;;0.57;;
46593;SDS011;35342;52.378;4.648;2023-02-27T16:50:22;1.85;;;0.85;;
46593;SDS011;35342;52.378;4.648;2023-02-27T16:52:57;4.78;;;0.90;;
46593;SDS011;35342;52.378;4.648;2023-02-27T16:55:24;0.77;;;0.70;;
46593;SDS011;35342;52.378;4.648;2023-02-27T16:57:50;0.95;;;0.70;;
46593;SDS011;35342;52.378;4.648;2023-02-27T17:00:17;1.13;;;0.60;;
46593;SDS011;35342;52.378;4.648;2023-02-27T17:02:44;2.08;;;0.93;;
46593;SDS011;35342;52.378;4.648;2023-02-27T17:05:13;1.50;;;1.00;;
46593;SDS011;35342;52.378;4.648;2023-02-27T17:07:39;3.65;;;1.00;;
46593;SDS011;35342;52.378;4.648;2023-02-27T17:10:06;2.13;;;1.15;;
46593;SDS011;35342;52.378;4.648;2023-02-27T17:12:38;3.92;;;0.80;;
46593;SDS011;35342;52.378;4.648;2023-02-27T17:15:03;2.88;;;0.68;;
46593;SDS011;35342;52.378;4.648;2023-02-27T17:17:30;1.98;;;1.08;;
46593;SDS011;35342;52.378;4.648;2023-02-27T17:19:56;1.30;;;0.88;;
46593;SDS011;35342;52.378;4.648;2023-02-27T17:22:21;2.85;;;0.70;;
46593;SDS011;35342;52.378;4.648;2023-02-27T17:24:47;4.40;;;0.77;;
46593;SDS011;35342;52.378;4.648;2023-02-27T17:27:13;1.63;;;0.63;;
46593;SDS011;35342;52.378;4.648;2023-02-27T17:29:39;4.15;;;1.15;;
46593;SDS011;35342;52.378;4.648;2023-02-27T17:32:06;1.48;;;0.77;;
46593;SDS011;35342;52.378;4.648;2023-02-27T17:34:32;2.85;;;0.75;;
46593;SDS011;35342;52.378;4.648;2023-02-27T17:36:58;2.28;;;0.80;;
46593;SDS011;35342;52.378;4.648;2023-02-27T17:39:24;1.00;;;0.65;;
46593;SDS011;35342;52.378;4.648;2023-02-27T17:41:50;0.85;;;0.80;;
46593;SDS011;35342;52.378;4.648;2023-02-27T17:44:17;3.85;;;0.68;;
46593;SDS011;35342;52.378;4.648;2023-02-27T17:46:42;1.88;;;0.98;;
46593;SDS011;35342;52.378;4.648;2023-02-27T17:49:08;2.45;;;0.80;;
46593;SDS011;35342;52.378;4.648;2023-02-27T17:51:34;1.58;;;1.10;;
46593;SDS011;35342;52.378;4.648;2023-02-27T17:54:01;1.10;;;0.90;;
46593;SDS011;35342;52.378;4.648;2023-02-27T17:56:28;4.97;;;1.83;;
46593;SDS011;35342;52.378;4.648;2023-02-27T17:58:57;1.58;;;1.10;;
46593;SDS011;35342;52.378;4.648;2023-02-27T18:01:23;0.77;;;0.77;;
46593;SDS011;35342;52.378;4.648;2023-02-27T18:03:51;3.53;;;1.02;;
46593;SDS011;35342;52.378;4.648;2023-02-27T18:06:18;1.27;;;0.90;;
46593;SDS011;35342;52.378;4.648;2023-02-27T18:08:45;1.50;;;0.60;;
46593;SDS011;35342;52.378;4.648;2023-02-27T18:11:13;3.45;;;0.98;;
46593;SDS011;35342;52.378;4.648;2023-02-27T18:13:42;2.83;;;1.55;;
46593;SDS011;35342;52.378;4.648;2023-02-27T18:16:09;2.85;;;1.00;;